Time;durP1;ratioP1;P1;durP2;ratioP2;P2;SDS_P1;SDS_P2;PMS_P1;PMS_P2;Temp;Humidity;BMP_temperature;BMP_pressure;BME280_temperature;BME280_humidity;BME280_pressure;Samples;Min_cycle;Max_cycle;Signal;HPM_P1;HPM_P2
2023/12/11 00:02:25;;;;;;;3.80;3.30;;;;;;;13.95;48.59;97691.05;105615;1257;74767;-36
2023/12/11 00:04:52;;;;;;;4.30;3.00;;;;;;;13.94;48.75;97690.73;105241;1261;66208;-37
2023/12/11 00:07:20;;;;;;;3.80;3.40;;;;;;;13.94;48.67;97693.86;105218;1259;72680;-37
2023/12/11 00:09:47;;;;;;;3.90;3.00;;;;;;;13.94;48.67;97695.86;105104;1262;61173;-35
2023/12/11 00:12:16;;;;;;;3.90;3.30;;;;;;;13.94;48.70;97700.55;105577;1259;61225;-36
2023/12/11 00:14:45;;;;;;;3.50;3.10;;;;;;;13.93;48.69;97694.98;105190;1261;74651;-38
2023/12/11 00:17:15;;;;;;;4.50;3.30;;;;;;;13.93;48.63;97697.03;105293;1260;66252;-36
2023/12/11 00:19:42;;;;;;;3.80;3.30;;;;;;;13.92;48.74;97702.78;105476;1261;72614;-37
2023/12/11 00:22:09;;;;;;;3.40;3.10;;;;;;;13.92;48.64;97711.02;105399;1261;61248;-36
2023/12/11 00:24:37;;;;;;;4.20;3.20;;;;;;;13.92;48.66;97709.09;105280;1258;61259;-35
2023/12/11 00:27:05;;;;;;;3.40;3.10;;;;;;;13.91;48.78;97709.36;105360;1257;74439;-37
2023/12/11 00:29:32;;;;;;;3.30;3.00;;;;;;;13.91;48.61;97704.27;105601;1260;66540;-37
2023/12/11 00:32:00;;;;;;;3.30;3.00;;;;;;;13.90;48.78;97699.54;105272;1259;72051;-36
2023/12/11 00:34:27;;;;;;;3.90;3.40;;;;;;;13.90;48.73;97688.98;105427;1261;61225;-37
2023/12/11 00:36:54;;;;;;;3.70;2.90;;;;;;;13.89;48.79;97681.20;105583;1259;61270;-37
2023/12/11 00:39:28;;;;;;;3.80;3.40;;;;;;;13.89;48.64;97675.27;105468;1257;74298;-37
2023/12/11 00:41:59;;;;;;;3.90;3.40;;;;;;;13.89;48.67;97668.09;105184;1259;66115;-36
2023/12/11 00:44:30;;;;;;;4.30;3.50;;;;;;;13.88;48.75;97661.75;105487;1258;72610;-39
2023/12/11 00:47:38;;;;;;;3.90;3.20;;;;;;;13.88;48.63;97669.83;105309;1261;61303;-36
2023/12/11 00:50:06;;;;;;;3.90;3.50;;;;;;;13.87;48.65;97674.02;105501;1257;61347;-37
2023/12/11 00:52:34;;;;;;;3.50;3.20;;;;;;;13.87;48.72;97671.55;105441;1261;74419;-36
2023/12/11 00:55:01;;;;;;;3.40;3.10;;;;;;;13.85;48.74;97671.11;105570;1261;66113;-36
2023/12/11 00:57:29;;;;;;;3.00;2.70;;;;;;;13.85;48.69;97673.64;105422;1258;72373;-37
2023/12/11 00:59:56;;;;;;;3.80;3.40;;;;;;;13.85;48.65;97673.95;105500;1261;61251;-36
2023/12/11 01:02:24;;;;;;;3.30;3.00;;;;;;;13.85;48.66;97675.77;105557;1259;61323;-36
2023/12/11 01:04:57;;;;;;;3.30;3.00;;;;;;;13.84;48.70;97671.90;105256;1260;74596;-39
2023/12/11 01:07:33;;;;;;;4.40;3.20;;;;;;;13.84;48.68;97665.27;105170;1258;67851;-37
2023/12/11 01:10:21;;;;;;;3.40;3.10;;;;;;;13.83;48.70;97655.16;105030;1264;72743;-37
2023/12/11 01:12:49;;;;;;;4.90;3.40;;;;;;;13.83;48.66;97657.55;105239;1260;61173;-36
2023/12/11 01:15:16;;;;;;;4.00;3.00;;;;;;;13.83;48.73;97661.52;105215;1257;61344;-37
2023/12/11 01:17:46;;;;;;;3.50;3.10;;;;;;;13.83;48.68;97657.52;105140;1257;74641;-38
2023/12/11 01:20:14;;;;;;;3.40;3.10;;;;;;;13.82;48.73;97650.73;105226;1260;66285;-37
2023/12/11 01:22:42;;;;;;;3.80;3.50;;;;;;;13.82;48.65;97640.10;105334;1259;72302;-35
2023/12/11 01:25:09;;;;;;;5.40;3.70;;;;;;;13.82;48.77;97628.95;105445;1261;61212;-37
2023/12/11 01:27:39;;;;;;;3.90;3.20;;;;;;;13.81;48.71;97624.02;105519;1258;61326;-38
2023/12/11 01:30:10;;;;;;;4.00;2.90;;;;;;;13.81;48.70;97625.47;105017;1264;74731;-38
2023/12/11 01:32:38;;;;;;;3.60;3.20;;;;;;;13.81;48.65;97623.38;105568;1260;64771;-37
2023/12/11 01:35:05;;;;;;;3.80;3.10;;;;;;;13.81;48.66;97620.38;105311;1261;72577;-36
2023/12/11 01:37:33;;;;;;;3.70;3.20;;;;;;;13.81;48.63;97617.99;105618;1259;61251;-37
2023/12/11 01:40:00;;;;;;;3.40;3.10;;;;;;;13.81;48.77;97618.38;105424;1259;61922;-36
2023/12/11 01:42:27;;;;;;;3.90;3.40;;;;;;;13.81;48.66;97601.75;105478;1261;75587;-37
2023/12/11 01:44:55;;;;;;;5.40;3.50;;;;;;;13.80;48.69;97599.36;105254;1261;66001;-37
2023/12/11 01:47:23;;;;;;;3.40;2.90;;;;;;;13.80;48.77;97613.28;105330;1259;72399;-37
2023/12/11 01:49:54;;;;;;;3.80;3.00;;;;;;;13.80;48.71;97608.66;105420;1257;61378;-35
2023/12/11 01:52:22;;;;;;;3.40;3.10;;;;;;;13.80;48.76;97607.71;105481;1259;61407;-36
2023/12/11 01:54:49;;;;;;;3.90;3.50;;;;;;;13.80;48.59;97607.12;105207;1260;74637;-36
2023/12/11 01:57:17;;;;;;;4.50;3.20;;;;;;;13.80;48.67;97603.11;105364;1261;66327;-37
2023/12/11 01:59:45;;;;;;;3.20;2.90;;;;;;;13.79;48.64;97600.02;105146;1259;72584;-37
2023/12/11 02:02:16;;;;;;;3.80;3.40;;;;;;;13.80;48.62;97605.02;105188;1259;61441;-36
2023/12/11 02:04:44;;;;;;;4.10;3.40;;;;;;;13.79;48.74;97618.44;105411;1257;61243;-35
2023/12/11 02:07:13;;;;;;;4.00;3.20;;;;;;;13.80;48.70;97610.25;105271;1259;74443;-37
2023/12/11 02:09:42;;;;;;;4.40;3.10;;;;;;;13.79;48.63;97597.92;105187;1259;66271;-36
2023/12/11 02:12:10;;;;;;;3.30;3.00;;;;;;;13.79;48.69;97599.23;105113;1264;72912;-37
2023/12/11 02:14:37;;;;;;;3.70;3.00;;;;;;;13.79;48.57;97602.29;105215;1264;61184;-38
2023/12/11 02:17:08;;;;;;;3.70;3.20;;;;;;;13.79;48.68;97603.90;105190;1259;61277;-36
2023/12/11 02:19:36;;;;;;;3.50;2.90;;;;;;;13.79;48.63;97608.46;105440;1259;74399;-36
2023/12/11 02:22:03;;;;;;;3.80;3.10;;;;;;;13.79;48.73;97610.20;105490;1259;66286;-37
2023/12/11 02:24:40;;;;;;;4.10;3.30;;;;;;;13.79;48.62;97595.61;105268;1259;72367;-37
2023/12/11 02:27:07;;;;;;;3.80;3.10;;;;;;;13.79;48.73;97590.45;105183;1257;61782;-36
2023/12/11 02:29:34;;;;;;;3.20;2.90;;;;;;;13.79;48.63;97583.23;105259;1259;61343;-36
2023/12/11 02:32:01;;;;;;;3.60;3.30;;;;;;;13.79;48.64;97583.77;105518;1259;74276;-36
2023/12/11 02:34:29;;;;;;;3.80;3.10;;;;;;;13.80;48.78;97594.09;105376;1261;66230;-37
2023/12/11 02:36:56;;;;;;;3.60;3.20;;;;;;;13.79;48.64;97594.70;105469;1259;72594;-37
2023/12/11 02:39:24;;;;;;;3.30;2.70;;;;;;;13.80;48.71;97594.95;105383;1261;61263;-36
2023/12/11 02:41:51;;;;;;;3.20;2.90;;;;;;;13.80;48.74;97584.77;105466;1259;61206;-36
2023/12/11 02:44:18;;;;;;;3.70;2.50;;;;;;;13.79;48.84;97582.85;105396;1261;74641;-36
2023/12/11 02:46:46;;;;;;;3.90;3.10;;;;;;;13.79;48.74;97582.85;105363;1261;65986;-37
2023/12/11 02:49:13;;;;;;;4.20;3.30;;;;;;;13.79;48.78;97578.77;105480;1259;72462;-36
2023/12/11 02:51:40;;;;;;;3.40;3.10;;;;;;;13.79;48.76;97580.48;105458;1261;61255;-36
2023/12/11 02:54:08;;;;;;;4.10;3.20;;;;;;;13.79;48.73;97583.98;105469;1258;61354;-36
2023/12/11 02:56:39;;;;;;;5.30;3.40;;;;;;;13.79;48.89;97587.16;105236;1261;74562;-36
2023/12/11 02:59:06;;;;;;;3.70;3.20;;;;;;;13.79;48.75;97591.84;105309;1257;66190;-36
2023/12/11 03:01:37;;;;;;;3.40;2.90;;;;;;;13.79;48.70;97580.54;105289;1261;71509;-37
2023/12/11 03:04:05;;;;;;;4.30;3.30;;;;;;;13.80;48.86;97575.25;105182;1261;61294;-36
2023/12/11 03:06:33;;;;;;;3.50;2.90;;;;;;;13.79;48.78;97574.72;105419;1258;61398;-36
2023/12/11 03:09:04;;;;;;;3.70;3.20;;;;;;;13.80;48.84;97572.34;105364;1259;75613;-38
2023/12/11 03:11:32;;;;;;;3.70;3.00;;;;;;;13.79;48.79;97583.08;105392;1261;65956;-37
2023/12/11 03:13:59;;;;;;;3.70;3.30;;;;;;;13.79;48.69;97591.41;105554;1257;72620;-37
2023/12/11 03:16:26;;;;;;;3.40;3.10;;;;;;;13.79;48.68;97594.27;105585;1261;61304;-37
2023/12/11 03:18:53;;;;;;;3.40;2.70;;;;;;;13.79;48.77;97588.94;105570;1259;61314;-35
2023/12/11 03:21:21;;;;;;;3.90;3.00;;;;;;;13.80;48.83;97591.24;105324;1261;74581;-36
2023/12/11 03:23:48;;;;;;;3.60;3.00;;;;;;;13.79;48.69;97586.77;105333;1261;64933;-36
2023/12/11 03:26:15;;;;;;;4.30;3.10;;;;;;;13.80;48.81;97587.64;105514;1259;72644;-36
2023/12/11 03:28:43;;;;;;;3.00;2.70;;;;;;;13.80;48.71;97584.02;105521;1261;61260;-36
2023/12/11 03:31:10;;;;;;;3.30;3.00;;;;;;;13.80;48.83;97587.36;105420;1257;61275;-36
2023/12/11 03:33:38;;;;;;;3.40;3.10;;;;;;;13.80;48.75;97589.13;105552;1261;74604;-36
2023/12/11 03:36:06;;;;;;;3.40;3.00;;;;;;;13.80;48.86;97588.11;105616;1262;66241;-36
2023/12/11 03:38:33;;;;;;;3.00;2.70;;;;;;;13.80;48.76;97590.88;105569;1259;72603;-36
2023/12/11 03:41:00;;;;;;;3.90;2.90;;;;;;;13.80;48.85;97594.27;105350;1261;61277;-36
2023/12/11 03:43:28;;;;;;;3.40;2.90;;;;;;;13.80;48.87;97588.89;105445;1258;61343;-36
2023/12/11 03:45:55;;;;;;;3.40;3.00;;;;;;;13.80;48.82;97579.66;105460;1259;74526;-37
2023/12/11 03:48:24;;;;;;;3.10;2.70;;;;;;;13.80;48.86;97574.45;105577;1261;66239;-36
2023/12/11 03:50:52;;;;;;;3.30;2.90;;;;;;;13.80;48.67;97577.65;105642;1258;73054;-37
2023/12/11 03:53:19;;;;;;;3.40;2.90;;;;;;;13.80;48.68;97588.74;105344;1261;61274;-36
2023/12/11 03:55:46;;;;;;;3.30;3.00;;;;;;;13.80;48.74;97591.27;105161;1257;61329;-36
2023/12/11 03:58:14;;;;;;;3.50;2.70;;;;;;;13.80;48.68;97581.80;105230;1257;75124;-36
2023/12/11 04:00:41;;;;;;;3.10;2.70;;;;;;;13.80;48.67;97579.50;105490;1261;66032;-36
2023/12/11 04:03:09;;;;;;;3.40;3.00;;;;;;;13.80;48.81;97578.84;105240;1258;72719;-37
2023/12/11 04:05:37;;;;;;;3.10;2.80;;;;;;;13.80;48.73;97578.52;105335;1262;61292;-37
2023/12/11 04:08:04;;;;;;;3.20;2.90;;;;;;;13.80;48.76;97585.52;105290;1259;61335;-36
2023/12/11 04:10:32;;;;;;;3.00;2.70;;;;;;;13.80;48.76;97586.27;105804;1258;73442;-38
2023/12/11 04:13:00;;;;;;;3.40;3.10;;;;;;;13.80;48.81;97584.44;105546;1261;65381;-36
2023/12/11 04:15:27;;;;;;;4.10;3.00;;;;;;;13.80;48.70;97584.05;105359;1259;71619;-37
2023/12/11 04:17:54;;;;;;;3.50;3.20;;;;;;;13.80;48.79;97580.29;105558;1261;61447;-35
2023/12/11 04:20:22;;;;;;;3.10;2.70;;;;;;;13.80;48.96;97579.91;105595;1258;61343;-36
2023/12/11 04:22:49;;;;;;;3.40;3.00;;;;;;;13.81;48.80;97578.38;105570;1261;74671;-35
2023/12/11 04:25:16;;;;;;;3.40;3.10;;;;;;;13.80;48.91;97571.52;105296;1260;65873;-36
2023/12/11 04:27:44;;;;;;;3.10;2.80;;;;;;;13.81;48.91;97564.23;105177;1258;73066;-36
2023/12/11 04:30:12;;;;;;;3.00;2.70;;;;;;;13.81;48.96;97562.01;105342;1261;61293;-36
2023/12/11 04:32:39;;;;;;;3.90;2.90;;;;;;;13.81;48.98;97564.23;105280;1259;61222;-36
2023/12/11 04:35:07;;;;;;;4.30;3.10;;;;;;;13.81;48.84;97558.69;105586;1258;74595;-36
2023/12/11 04:37:35;;;;;;;3.80;3.10;;;;;;;13.81;48.91;97559.16;105566;1261;66111;-36
2023/12/11 04:40:03;;;;;;;3.50;3.00;;;;;;;13.81;48.86;97559.17;105190;1261;72455;-36
2023/12/11 04:42:31;;;;;;;3.70;3.10;;;;;;;13.81;48.91;97559.85;105208;1259;61339;-36
2023/12/11 04:44:58;;;;;;;3.20;2.90;;;;;;;13.81;48.87;97553.55;105375;1259;61245;-36
2023/12/11 04:47:26;;;;;;;3.10;2.80;;;;;;;13.81;48.94;97554.41;105436;1262;74639;-36
2023/12/11 04:49:53;;;;;;;3.20;2.90;;;;;;;13.81;48.91;97552.09;105538;1262;66009;-36
2023/12/11 04:52:21;;;;;;;3.60;2.90;;;;;;;13.81;48.93;97544.02;105538;1258;72553;-36
2023/12/11 04:54:48;;;;;;;3.00;2.70;;;;;;;13.81;48.92;97540.47;105156;1261;61232;-36
2023/12/11 04:57:16;;;;;;;3.00;2.60;;;;;;;13.81;48.87;97537.09;105300;1257;61349;-37
2023/12/11 04:59:43;;;;;;;3.20;2.90;;;;;;;13.82;48.78;97530.49;105351;1261;74570;-36
2023/12/11 05:02:11;;;;;;;3.20;2.90;;;;;;;13.81;48.92;97526.26;105634;1261;66280;-35
2023/12/11 05:04:38;;;;;;;3.20;2.90;;;;;;;13.81;48.95;97525.34;105569;1259;72750;-35
2023/12/11 05:07:06;;;;;;;4.00;3.00;;;;;;;13.82;48.91;97521.88;105318;1261;61335;-36
2023/12/11 05:09:33;;;;;;;2.80;2.60;;;;;;;13.82;49.03;97517.42;105524;1261;61357;-36
2023/12/11 05:12:01;;;;;;;3.00;2.60;;;;;;;13.81;48.81;97519.10;105220;1257;74558;-37
2023/12/11 05:14:28;;;;;;;3.20;2.90;;;;;;;13.82;48.81;97524.52;105243;1261;64943;-36
2023/12/11 05:16:56;;;;;;;3.10;2.80;;;;;;;13.82;48.74;97528.89;105145;1262;72330;-37
2023/12/11 05:19:23;;;;;;;3.70;3.00;;;;;;;13.81;48.91;97530.19;105340;1261;61240;-36
2023/12/11 05:21:51;;;;;;;3.30;2.70;;;;;;;13.82;49.04;97532.05;105413;1262;61357;-37
2023/12/11 05:24:22;;;;;;;3.60;2.80;;;;;;;13.82;48.78;97531.41;105565;1259;74235;-37
2023/12/11 05:26:49;;;;;;;3.00;2.70;;;;;;;13.82;48.91;97530.34;105588;1259;65984;-35
2023/12/11 05:29:16;;;;;;;3.30;2.70;;;;;;;13.81;48.79;97530.40;105569;1257;73054;-36
2023/12/11 05:31:44;;;;;;;3.20;2.90;;;;;;;13.82;48.89;97534.11;105465;1261;61230;-36
2023/12/11 05:34:11;;;;;;;2.90;2.60;;;;;;;13.82;48.81;97535.89;105630;1259;61575;-37
2023/12/11 05:36:38;;;;;;;2.80;2.50;;;;;;;13.82;48.84;97530.82;105569;1259;74534;-36
2023/12/11 05:39:09;;;;;;;3.90;3.00;;;;;;;13.82;49.01;97528.50;105301;1262;65599;-36
2023/12/11 05:41:36;;;;;;;3.20;2.90;;;;;;;13.81;48.89;97528.19;105373;1262;72708;-36
2023/12/11 05:44:04;;;;;;;2.80;2.50;;;;;;;13.81;48.89;97525.19;105607;1257;61357;-35
2023/12/11 05:46:36;;;;;;;3.90;2.80;;;;;;;13.82;48.89;97518.49;105495;1261;61247;-35
2023/12/11 05:49:03;;;;;;;2.80;2.50;;;;;;;13.82;48.86;97518.05;105534;1259;74545;-35
2023/12/11 05:51:31;;;;;;;2.90;2.60;;;;;;;13.81;48.88;97521.63;105683;1260;65993;-36
2023/12/11 05:53:58;;;;;;;3.00;2.50;;;;;;;13.82;48.72;97527.11;105358;1259;72460;-36
2023/12/11 05:56:25;;;;;;;4.60;2.80;;;;;;;13.81;49.06;97523.57;105390;1260;61246;-37
2023/12/11 05:58:54;;;;;;;3.20;2.70;;;;;;;13.81;48.83;97521.78;105375;1261;61262;-37
2023/12/11 06:01:21;;;;;;;3.10;2.80;;;;;;;13.81;48.86;97521.19;105345;1262;74125;-38
2023/12/11 06:03:49;;;;;;;2.90;2.60;;;;;;;13.81;48.71;97517.48;105206;1261;65436;-36
2023/12/11 06:06:17;;;;;;;2.60;2.40;;;;;;;13.81;48.83;97513.88;105546;1260;72602;-36
2023/12/11 06:08:44;;;;;;;3.30;2.90;;;;;;;13.82;48.86;97510.04;105502;1261;61322;-36
2023/12/11 06:11:12;;;;;;;3.00;2.70;;;;;;;13.81;48.79;97507.95;105626;1261;61256;-36
2023/12/11 06:13:39;;;;;;;3.90;2.90;;;;;;;13.81;48.71;97509.95;105527;1262;74554;-36
2023/12/11 06:16:07;;;;;;;3.30;3.00;;;;;;;13.81;48.81;97511.78;105369;1260;64946;-37
2023/12/11 06:18:34;;;;;;;2.80;2.50;;;;;;;13.81;48.91;97510.04;105073;1263;72387;-37
2023/12/11 06:21:02;;;;;;;3.40;2.90;;;;;;;13.81;48.79;97502.57;105413;1260;61326;-37
2023/12/11 06:23:30;;;;;;;4.60;3.20;;;;;;;13.82;48.89;97501.74;105425;1258;61337;-35
2023/12/11 06:25:58;;;;;;;3.00;2.70;;;;;;;13.82;48.78;97506.27;105595;1261;74587;-38
2023/12/11 06:28:25;;;;;;;3.60;3.00;;;;;;;13.81;48.75;97514.89;105499;1261;66084;-35
2023/12/11 06:30:52;;;;;;;4.90;2.80;;;;;;;13.82;48.68;97509.83;105077;1260;72604;-36
2023/12/11 06:33:20;;;;;;;5.10;3.10;;;;;;;13.81;48.78;97512.73;105375;1262;61377;-36
2023/12/11 06:35:47;;;;;;;3.90;2.90;;;;;;;13.82;48.77;97513.45;105555;1261;61382;-36
2023/12/11 06:38:15;;;;;;;4.10;3.00;;;;;;;13.83;48.98;97517.31;105410;1261;74589;-35
2023/12/11 06:40:42;;;;;;;5.10;3.00;;;;;;;13.83;49.07;97512.35;105824;1260;65702;-38
2023/12/11 06:43:09;;;;;;;4.40;3.30;;;;;;;13.85;49.10;97513.96;105168;1260;72602;-36
2023/12/11 06:45:38;;;;;;;6.10;3.00;;;;;;;13.87;50.01;97520.50;105578;1261;61341;-37
2023/12/11 06:48:06;;;;;;;5.10;3.40;;;;;;;13.91;50.43;97516.06;105620;1259;61326;-36
2023/12/11 06:50:34;;;;;;;6.20;3.10;;;;;;;13.96;50.79;97516.54;105531;1260;73109;-36
2023/12/11 06:53:01;;;;;;;5.30;3.20;;;;;;;14.00;50.90;97519.02;105409;1260;66081;-36
2023/12/11 06:55:29;;;;;;;3.20;2.90;;;;;;;14.05;50.93;97518.09;105217;1262;72625;-35
2023/12/11 06:57:56;;;;;;;4.20;3.00;;;;;;;14.09;50.93;97516.86;105507;1261;61175;-34
2023/12/11 07:00:25;;;;;;;3.70;3.20;;;;;;;14.13;51.11;97517.64;105240;1262;211288;-37
2023/12/11 07:02:52;;;;;;;6.70;3.20;;;;;;;14.16;51.09;97511.70;105111;1263;75051;-36
2023/12/11 07:05:19;;;;;;;5.30;3.20;;;;;;;14.19;51.06;97510.04;105227;1262;65881;-37
2023/12/11 07:07:47;;;;;;;8.80;3.50;;;;;;;14.22;50.93;97504.98;105434;1259;72564;-36
2023/12/11 07:10:14;;;;;;;4.10;3.40;;;;;;;14.23;50.12;97510.17;105211;1256;61231;-37
2023/12/11 07:12:45;;;;;;;4.50;3.70;;;;;;;14.24;49.69;97500.92;105680;1257;61258;-38
2023/12/11 07:15:13;;;;;;;5.10;4.00;;;;;;;14.26;49.67;97495.36;105202;1258;74997;-38
2023/12/11 07:17:42;;;;;;;4.80;3.50;;;;;;;14.26;49.78;97499.16;105184;1263;64408;-38
2023/12/11 07:20:11;;;;;;;4.50;3.40;;;;;;;14.28;49.77;97502.61;105219;1261;73712;-38
2023/12/11 07:22:39;;;;;;;5.00;3.60;;;;;;;14.28;49.91;97505.23;105219;1257;61360;-39
2023/12/11 07:25:07;;;;;;;4.10;3.70;;;;;;;14.29;49.93;97506.19;105274;1260;61345;-35
2023/12/11 07:27:35;;;;;;;3.70;3.30;;;;;;;14.29;49.92;97507.69;105166;1259;73114;-36
2023/12/11 07:30:05;;;;;;;6.10;3.40;;;;;;;14.30;49.94;97503.31;105417;1261;67296;-37
2023/12/11 07:32:33;;;;;;;6.70;3.70;;;;;;;14.30;49.77;97500.64;106587;1262;73479;-38
2023/12/11 07:35:00;;;;;;;6.20;3.60;;;;;;;14.30;49.84;97494.73;105142;1256;61154;-38
2023/12/11 07:37:33;;;;;;;4.80;3.30;;;;;;;14.31;49.70;97493.45;105315;1256;61301;-37
2023/12/11 07:40:03;;;;;;;5.70;4.00;;;;;;;14.31;49.56;97486.74;105212;1265;75006;-37
2023/12/11 07:42:31;;;;;;;5.00;3.50;;;;;;;14.30;49.59;97485.89;105046;1264;67125;-37
2023/12/11 07:45:04;;;;;;;4.20;3.50;;;;;;;14.30;49.60;97489.02;105163;1262;73472;-40
2023/12/11 07:47:36;;;;;;;4.60;3.20;;;;;;;14.30;49.59;97481.86;105214;1262;61263;-38
2023/12/11 07:50:07;;;;;;;5.80;3.60;;;;;;;14.30;49.60;97470.42;105388;1259;61352;-36
2023/12/11 07:52:41;;;;;;;6.90;3.20;;;;;;;14.30;49.70;97466.48;104932;1262;74589;-36
2023/12/11 07:55:11;;;;;;;4.70;3.70;;;;;;;14.30;49.86;97474.80;106171;1262;66115;-36
2023/12/11 07:57:40;;;;;;;6.20;3.10;;;;;;;14.31;49.98;97486.91;106138;1265;73111;-34
2023/12/11 08:00:13;;;;;;;4.30;3.10;;;;;;;14.31;50.00;97500.31;105142;1263;61292;-36
2023/12/11 08:02:43;;;;;;;3.80;3.00;;;;;;;14.32;50.18;97508.66;104978;1262;61342;-36
2023/12/11 08:05:13;;;;;;;4.70;3.10;;;;;;;14.32;50.40;97505.81;105129;1262;75535;-33
2023/12/11 08:07:43;;;;;;;4.10;3.40;;;;;;;14.33;50.38;97499.06;105054;1262;66231;-34
2023/12/11 08:10:11;;;;;;;4.10;3.30;;;;;;;14.34;50.55;97494.44;105140;1261;72635;-34
2023/12/11 08:12:38;;;;;;;4.70;3.20;;;;;;;14.35;50.68;97491.92;105181;1271;61239;-34
2023/12/11 08:15:06;;;;;;;6.70;3.70;;;;;;;14.36;50.59;97480.98;105096;1263;61337;-35
2023/12/11 08:17:34;;;;;;;5.10;3.30;;;;;;;14.38;50.62;97482.80;105245;1262;77119;-34
2023/12/11 08:20:08;;;;;;;7.20;3.30;;;;;;;14.39;50.63;97481.68;105198;1261;67270;-35
2023/12/11 08:22:43;;;;;;;9.20;3.10;;;;;;;14.41;50.86;97480.92;105294;1263;72394;-34
2023/12/11 08:25:14;;;;;;;7.10;3.20;;;;;;;14.44;50.78;97480.33;105112;1257;61355;-36
2023/12/11 08:27:41;;;;;;;5.20;3.20;;;;;;;14.45;50.94;97482.22;105119;1272;61250;-34
2023/12/11 08:30:12;;;;;;;10.50;3.50;;;;;;;14.47;50.96;97480.30;105117;1262;74543;-36
2023/12/11 08:32:39;;;;;;;6.90;3.30;;;;;;;14.48;50.81;97481.49;105235;1261;67226;-34
2023/12/11 08:35:09;;;;;;;5.00;3.70;;;;;;;14.50;50.97;97475.56;105250;1258;73288;-38
2023/12/11 08:37:37;;;;;;;7.10;3.50;;;;;;;14.52;50.79;97467.94;105186;1261;61313;-34
2023/12/11 08:40:06;;;;;;;6.30;3.30;;;;;;;14.54;50.78;97465.60;105092;1258;63601;-35
2023/12/11 08:42:36;;;;;;;5.20;2.90;;;;;;;14.56;50.72;97459.77;105175;1260;74593;-33
2023/12/11 08:45:08;;;;;;;6.20;3.50;;;;;;;14.57;50.67;97457.41;105354;1271;66271;-34
2023/12/11 08:47:36;;;;;;;6.90;3.60;;;;;;;14.59;50.68;97453.58;105451;1259;71427;-35
2023/12/11 08:50:07;;;;;;;7.30;3.90;;;;;;;14.61;50.64;97446.40;105208;1261;61292;-35
2023/12/11 08:52:39;;;;;;;7.80;3.50;;;;;;;14.63;50.57;97445.26;105208;1271;62201;-36
2023/12/11 08:55:07;;;;;;;4.70;3.30;;;;;;;14.64;50.60;97438.60;105125;1262;73831;-37
2023/12/11 08:57:34;;;;;;;7.20;3.40;;;;;;;14.66;50.60;97436.77;105355;1261;66357;-34
2023/12/11 09:00:05;;;;;;;6.80;3.50;;;;;;;14.69;50.74;97436.16;105186;1257;73580;-35
2023/12/11 09:02:33;;;;;;;4.10;3.30;;;;;;;14.73;50.90;97433.45;105307;1260;61318;-37
2023/12/11 09:05:03;;;;;;;6.00;3.30;;;;;;;14.76;51.03;97432.34;104918;1257;61330;-35
2023/12/11 09:07:31;;;;;;;5.40;3.30;;;;;;;14.80;51.13;97428.45;105081;1263;74217;-37
2023/12/11 09:09:58;;;;;;;4.70;3.50;;;;;;;14.83;51.49;97426.73;105219;1260;67033;-35
2023/12/11 09:12:26;;;;;;;5.40;3.60;;;;;;;14.87;51.57;97423.95;105061;1262;72650;-34
2023/12/11 09:15:00;;;;;;;4.40;2.90;;;;;;;14.90;51.55;97427.16;105399;1267;61321;-38
2023/12/11 09:17:29;;;;;;;6.60;3.30;;;;;;;14.93;51.79;97417.72;105570;1258;61243;-35
2023/12/11 09:20:04;;;;;;;5.00;3.60;;;;;;;14.96;51.93;97413.12;105092;1263;74317;-35
2023/12/11 09:22:32;;;;;;;4.90;3.20;;;;;;;14.98;51.86;97412.27;105375;1260;67029;-36
2023/12/11 09:24:59;;;;;;;6.60;2.90;;;;;;;15.01;51.72;97411.04;105278;1258;73783;-35
2023/12/11 09:27:26;;;;;;;7.10;3.40;;;;;;;15.02;51.69;97407.45;105307;1257;61153;-36
2023/12/11 09:29:54;;;;;;;5.50;2.90;;;;;;;15.03;51.72;97409.88;105215;1259;61319;-33
2023/12/11 09:32:27;;;;;;;4.00;3.10;;;;;;;15.03;51.74;97408.19;105132;1257;72699;-36
2023/12/11 09:34:54;;;;;;;4.80;2.90;;;;;;;15.04;51.72;97412.54;105064;1263;64912;-33
2023/12/11 09:37:24;;;;;;;6.00;2.70;;;;;;;15.05;51.65;97412.88;105059;1261;72425;-35
2023/12/11 09:39:55;;;;;;;5.30;3.30;;;;;;;15.06;51.95;97411.93;105097;1262;61277;-34
2023/12/11 09:42:23;;;;;;;5.50;3.10;;;;;;;15.08;51.90;97407.45;105166;1258;61306;-34
2023/12/11 09:44:54;;;;;;;3.90;3.10;;;;;;;15.10;52.05;97403.27;105143;1257;75310;-34
2023/12/11 09:47:25;;;;;;;5.80;3.20;;;;;;;15.13;52.11;97401.11;104924;1263;66126;-33
2023/12/11 09:49:53;;;;;;;4.00;3.10;;;;;;;15.14;52.28;97395.02;105095;1264;72622;-31
2023/12/11 09:52:22;;;;;;;5.80;2.90;;;;;;;15.17;52.24;97400.09;105215;1260;61388;-32
2023/12/11 09:54:49;;;;;;;5.70;3.10;;;;;;;15.20;52.26;97395.33;105144;1263;61342;-34
2023/12/11 09:57:16;;;;;;;3.60;2.90;;;;;;;15.21;52.40;97391.62;105197;1262;74366;-36
2023/12/11 09:59:45;;;;;;;3.10;2.80;;;;;;;15.23;52.30;97391.30;105158;1271;65428;-32
2023/12/11 10:02:17;;;;;;;3.50;2.90;;;;;;;15.25;52.30;97381.95;105014;1257;72551;-32
2023/12/11 10:05:04;;;;;;;4.70;2.90;;;;;;;15.27;52.32;97382.94;105221;1260;61221;-33
2023/12/11 10:07:35;;;;;;;4.60;3.00;;;;;;;15.29;52.30;97376.21;105385;1261;61180;-36
2023/12/11 10:10:30;;;;;;;3.70;2.70;;;;;;;15.31;52.41;97373.84;105233;1260;74703;-38
2023/12/11 10:12:58;;;;;;;3.60;2.80;;;;;;;15.34;52.31;97372.77;105267;1261;66729;-34
2023/12/11 10:15:30;;;;;;;4.60;2.80;;;;;;;15.35;52.34;97374.44;105309;1258;73333;-36
2023/12/11 10:18:03;;;;;;;6.40;3.00;;;;;;;15.37;52.42;97374.41;105313;1260;61342;-33
2023/12/11 10:20:32;;;;;;;4.00;3.00;;;;;;;15.38;52.40;97365.06;105130;1263;61482;-35
2023/12/11 10:23:17;;;;;;;5.70;2.90;;;;;;;15.39;52.44;97362.48;105211;1257;73356;-33
2023/12/11 10:25:47;;;;;;;5.00;2.80;;;;;;;15.41;52.52;97361.75;106344;1257;66385;-35
2023/12/11 10:28:22;;;;;;;8.70;2.90;;;;;;;15.43;52.63;97357.95;105045;1264;72612;-34
2023/12/11 10:30:54;;;;;;;3.90;2.90;;;;;;;15.44;52.77;97356.46;105321;1260;61224;-35
2023/12/11 10:33:23;;;;;;;4.50;2.80;;;;;;;15.45;52.64;97357.67;105044;1257;61341;-35
2023/12/11 10:35:51;;;;;;;2.70;2.50;;;;;;;15.47;52.50;97351.27;105035;1260;74306;-33
2023/12/11 10:38:24;;;;;;;6.50;2.90;;;;;;;15.49;52.52;97344.00;104815;1264;67068;-33
2023/12/11 10:40:52;;;;;;;3.10;2.80;;;;;;;15.51;52.55;97342.67;105176;1261;73713;-36
2023/12/11 10:43:20;;;;;;;4.50;3.00;;;;;;;15.54;52.55;97346.33;105174;1260;61305;-34
2023/12/11 10:45:48;;;;;;;3.80;3.10;;;;;;;15.62;52.73;97349.58;105162;1257;61247;-34
2023/12/11 10:48:19;;;;;;;3.90;3.10;;;;;;;15.71;52.89;97345.02;105112;1257;74362;-35
2023/12/11 10:51:22;;;;;;;6.90;3.10;;;;;;;15.80;52.88;97342.77;105179;1261;67061;-33
2023/12/11 10:54:03;;;;;;;6.40;3.30;;;;;;;15.90;53.10;97337.88;107984;1257;73635;-33
2023/12/11 10:56:32;;;;;;;5.00;3.10;;;;;;;15.95;53.10;97327.86;106548;1255;61279;-33
2023/12/11 10:58:59;;;;;;;7.30;3.40;;;;;;;16.02;52.95;97337.61;105266;1260;61268;-35
2023/12/11 11:01:27;;;;;;;3.40;3.00;;;;;;;16.04;52.81;97333.08;105140;1262;75485;-35
2023/12/11 11:03:55;;;;;;;3.70;3.10;;;;;;;16.08;52.70;97330.09;105125;1260;66631;-34
2023/12/11 11:06:22;;;;;;;4.60;3.30;;;;;;;16.10;52.34;97325.47;105709;1256;72625;-34
2023/12/11 11:08:57;;;;;;;5.30;3.40;;;;;;;16.11;52.25;97322.71;108960;1256;59333;-36
2023/12/11 11:11:37;;;;;;;5.10;2.90;;;;;;;16.12;52.29;97321.05;109014;1256;58863;-36
2023/12/11 11:14:38;;;;;;;6.50;3.20;;;;;;;16.13;52.15;97312.12;105089;1261;75581;-36
2023/12/11 11:17:06;;;;;;;5.20;3.30;;;;;;;16.14;52.04;97309.20;105269;1260;66240;-34
2023/12/11 11:19:35;;;;;;;6.70;3.70;;;;;;;16.14;51.93;97305.89;105263;1256;73506;-35
2023/12/11 11:22:08;;;;;;;5.50;3.40;;;;;;;16.14;51.90;97308.27;105292;1260;61354;-33
2023/12/11 11:24:37;;;;;;;8.20;3.30;;;;;;;16.13;51.72;97316.20;105470;1260;61210;-32
2023/12/11 11:27:39;;;;;;;4.00;3.20;;;;;;;16.12;51.66;97309.91;105488;1259;75318;-33
2023/12/11 11:30:08;;;;;;;6.60;3.70;;;;;;;16.10;51.72;97310.73;105443;1256;67321;-33
2023/12/11 11:32:57;;;;;;;6.20;3.40;;;;;;;16.10;51.69;97304.38;105273;1256;73422;-32
2023/12/11 11:35:50;;;;;;;4.00;3.30;;;;;;;16.08;51.71;97294.84;105225;1256;61342;-31